Hlavní strana
METAR-TAF:

METAR-TAF

Letiště :

Reschenský průsmyk, Itálie

zeměpisná šířka: 46-50N, zeměpisná délka: 010-30E, výška: 1800 m

Aktuální stav počasí

Zpráva byla vytvořena před 1 hodinou a 19 minutami, v 15:55 UTC
Východoseverovýchodní vítr 3 kt
Teplota 0°C
Vlhkost vzduchu 69%
Tlak 1020 hPa
Viditelnost 10 km a více
Žádná oblačnost pod 1500 m, nevyskytují se cumulonimby.

METAR: LIVE 171555Z 06003KT CAVOK 00/M05 Q1020 RMK FEW FEW070 VIS MIN 9999

Čas: 18:14 (17:14 UTC)


TAF: chybějící

Stav a předpovědi počasí z více než 4 000 letišť (zprávy METAR a TAF).

Červené a žluté tečky na mapě představují dostupné meteorologické stanice.

Když kurzor umístíte na tečku, zobrazí se název stanice.

Pak kliknutím zobrazíte stav a předpověď počasí.

Chcete-li změnit mapu, kliknutím na zelené tlačítko se znaménkem +mapu přiblížíte, kliknutím na zelené tlačítko se znaménkem – mapu oddálíte a kliknutím na zelené šipky přejdete na sousední mapy.


METAR-TAF: